Time;durP1;ratioP1;P1;durP2;ratioP2;P2;SDS_P1;SDS_P2;PMS_P1;PMS_P2;Temp;Humidity;BMP_temperature;BMP_pressure;BME280_temperature;BME280_humidity;BME280_pressure;Samples;Min_cycle;Max_cycle;Signal;HPM_P1;HPM_P2
2021/05/02 00:02:18;;;;;;;1.70;1.10;;;18.80;87.80;;;;;;5151771;27;20496;-42
2021/05/02 00:04:49;;;;;;;2.03;1.20;;;18.70;87.00;;;;;;5155311;27;20418;-42
2021/05/02 00:07:19;;;;;;;1.47;0.87;;;18.60;86.80;;;;;;5151991;27;20449;-42
2021/05/02 00:09:49;;;;;;;1.03;0.97;;;18.70;86.40;;;;;;5159219;27;20452;-42
2021/05/02 00:12:19;;;;;;;1.47;0.80;;;18.80;83.10;;;;;;5155879;27;20482;-42
2021/05/02 00:14:49;;;;;;;0.73;0.73;;;18.70;83.10;;;;;;5160571;27;20513;-42
2021/05/02 00:17:20;;;;;;;0.63;0.63;;;18.60;85.10;;;;;;5150990;27;20449;-41
2021/05/02 00:19:53;;;;;;;1.30;0.70;;;18.30;83.70;;;;;;5155409;27;20899;-42
2021/05/02 00:22:23;;;;;;;0.80;0.80;;;18.30;85.90;;;;;;5159879;27;20444;-42
2021/05/02 00:24:54;;;;;;;0.90;0.60;;;18.20;85.40;;;;;;5147631;27;20448;-42
2021/05/02 00:27:24;;;;;;;1.40;1.00;;;18.30;83.50;;;;;;5147666;27;20453;-42
2021/05/02 00:29:54;;;;;;;1.37;0.70;;;18.20;87.20;;;;;;5147539;27;20859;-42
2021/05/02 00:32:27;;;;;;;0.60;0.60;;;18.20;87.70;;;;;;5152476;27;20479;-42
2021/05/02 00:34:59;;;;;;;0.83;0.70;;;18.30;84.10;;;;;;5146827;27;20444;-42
2021/05/02 00:37:30;;;;;;;1.53;0.90;;;18.30;84.10;;;;;;5146796;27;20460;-41
2021/05/02 00:40:00;;;;;;;2.43;1.37;;;18.40;85.10;;;;;;5146909;27;20474;-43
2021/05/02 00:42:32;;;;;;;1.27;1.20;;;18.40;86.70;;;;;;5146600;27;21038;-42
2021/05/02 00:45:07;;;;;;;1.20;0.97;;;18.50;86.70;;;;;;5147940;27;20443;-41
2021/05/02 00:47:44;;;;;;;1.63;1.03;;;18.50;85.70;;;;;;5161576;27;20757;-42
2021/05/02 00:50:17;;;;;;;1.10;0.70;;;18.40;84.50;;;;;;5148754;27;20440;-42
2021/05/02 00:53:15;;;;;;;3.10;0.80;;;18.40;86.50;;;;;;5146386;27;20484;-42
2021/05/02 00:55:48;;;;;;;1.60;1.30;;;18.50;86.70;;;;;;5144618;27;20456;-41
2021/05/02 00:58:32;;;;;;;1.80;1.70;;;18.50;87.90;;;;;;5143674;27;20772;-42
2021/05/02 01:01:04;;;;;;;2.27;2.07;;;18.50;87.20;;;;;;5144238;27;20471;-42
2021/05/02 01:03:39;;;;;;;5.30;4.87;;;18.40;86.70;;;;;;5143956;27;20521;-42
2021/05/02 01:06:12;;;;;;;8.20;7.60;;;18.40;85.80;;;;;;5143902;27;20479;-42
2021/05/02 01:08:43;;;;;;;15.00;14.00;;;18.20;87.40;;;;;;5163550;27;20451;-42
2021/05/02 01:11:15;;;;;;;21.13;19.03;;;18.00;87.10;;;;;;5164356;27;20452;-42
2021/05/02 01:13:54;;;;;;;24.50;22.00;;;17.80;88.00;;;;;;5162897;27;20483;-43
2021/05/02 01:16:26;;;;;;;6.40;5.53;;;17.70;88.40;;;;;;5164023;27;20456;-43
2021/05/02 01:18:59;;;;;;;9.60;8.60;;;17.70;86.50;;;;;;5164628;27;20527;-43
2021/05/02 01:21:32;;;;;;;31.93;29.13;;;17.60;89.30;;;;;;5163953;27;20467;-43
2021/05/02 01:24:08;;;;;;;10.57;9.47;;;17.70;86.40;;;;;;5164748;27;20508;-43
2021/05/02 01:26:41;;;;;;;4.43;2.80;;;17.60;87.30;;;;;;5162338;27;20450;-42
2021/05/02 01:29:12;;;;;;;6.47;5.87;;;17.60;87.60;;;;;;5153437;27;20448;-43
2021/05/02 01:31:44;;;;;;;1.90;1.80;;;17.60;87.30;;;;;;5163544;27;20508;-43
2021/05/02 01:34:14;;;;;;;7.17;6.50;;;17.60;86.70;;;;;;5164327;27;20479;-43
2021/05/02 01:36:45;;;;;;;5.67;5.27;;;17.40;85.20;;;;;;5163217;27;20455;-43
2021/05/02 01:39:16;;;;;;;10.43;9.33;;;17.30;87.60;;;;;;5164075;27;20440;-43
2021/05/02 01:41:46;;;;;;;1.70;1.60;;;17.10;87.80;;;;;;5163510;27;20451;-43
2021/05/02 01:44:16;;;;;;;4.50;4.10;;;17.00;90.10;;;;;;5153196;27;20456;-43
2021/05/02 01:46:49;;;;;;;4.77;4.37;;;17.10;89.50;;;;;;5166631;27;20475;-43
2021/05/02 01:49:21;;;;;;;3.90;3.60;;;17.10;90.40;;;;;;5168646;27;20456;-43
2021/05/02 01:51:51;;;;;;;11.87;11.00;;;17.10;89.60;;;;;;5160213;27;20520;-42
2021/05/02 01:54:24;;;;;;;3.77;3.33;;;17.10;89.40;;;;;;5165521;27;20528;-41
2021/05/02 01:56:54;;;;;;;8.60;7.77;;;17.00;88.50;;;;;;5155989;27;20474;-41
2021/05/02 01:59:25;;;;;;;2.07;1.43;;;17.00;87.30;;;;;;5167723;27;20448;-41
2021/05/02 02:01:56;;;;;;;2.83;2.50;;;16.90;88.30;;;;;;5167577;27;20459;-42
2021/05/02 02:04:30;;;;;;;2.13;1.90;;;16.80;90.00;;;;;;5155167;27;20455;-42
2021/05/02 02:07:00;;;;;;;6.60;6.10;;;16.70;88.60;;;;;;5154878;27;20504;-42
2021/05/02 02:09:32;;;;;;;3.20;2.40;;;16.60;88.90;;;;;;5164781;27;20500;-42
2021/05/02 02:12:02;;;;;;;2.50;2.30;;;16.50;90.00;;;;;;5158405;27;20439;-42
2021/05/02 02:14:32;;;;;;;3.10;2.23;;;16.50;89.20;;;;;;5168189;27;20477;-42
2021/05/02 02:17:03;;;;;;;3.47;3.17;;;16.40;90.10;;;;;;5167439;27;20444;-42
2021/05/02 02:19:34;;;;;;;2.10;1.20;;;16.30;89.30;;;;;;5154636;27;20858;-42
2021/05/02 02:22:07;;;;;;;1.37;1.13;;;16.40;90.00;;;;;;5167146;27;20440;-42
2021/05/02 02:24:46;;;;;;;1.40;1.30;;;16.30;90.00;;;;;;5167500;27;20440;-42
2021/05/02 02:27:17;;;;;;;2.40;1.33;;;16.30;90.00;;;;;;5166801;27;20428;-41
2021/05/02 02:29:49;;;;;;;3.40;1.27;;;16.20;90.10;;;;;;5167616;27;20509;-42
2021/05/02 02:32:19;;;;;;;1.60;1.07;;;16.20;90.00;;;;;;5166508;27;20443;-42
2021/05/02 02:34:50;;;;;;;2.00;0.93;;;16.10;90.70;;;;;;5167473;27;20448;-41
2021/05/02 02:37:22;;;;;;;1.00;0.90;;;16.00;90.50;;;;;;5165352;27;20848;-42
2021/05/02 02:40:00;;;;;;;3.53;1.33;;;16.00;90.00;;;;;;5161615;27;20525;-42
2021/05/02 02:42:31;;;;;;;2.50;1.40;;;15.90;90.70;;;;;;5160708;27;20950;-42
2021/05/02 02:45:05;;;;;;;1.63;1.53;;;15.70;91.70;;;;;;5167449;27;20800;-43
2021/05/02 02:47:37;;;;;;;2.17;2.00;;;15.70;91.90;;;;;;5167097;27;20447;-42
2021/05/02 02:50:09;;;;;;;3.43;1.47;;;15.80;92.10;;;;;;5165341;27;20452;-42
2021/05/02 02:52:46;;;;;;;3.07;1.20;;;15.70;91.80;;;;;;5165393;27;20538;-42
2021/05/02 02:55:20;;;;;;;2.20;1.63;;;15.60;92.20;;;;;;5166158;27;20907;-42
2021/05/02 02:57:55;;;;;;;1.73;1.63;;;15.60;91.50;;;;;;5160482;27;20425;-42
2021/05/02 03:00:27;;;;;;;1.37;1.27;;;15.50;92.30;;;;;;5164649;27;20440;-41
2021/05/02 03:03:08;;;;;;;1.40;1.30;;;15.50;91.60;;;;;;5166838;27;20456;-42
2021/05/02 03:05:39;;;;;;;1.93;1.33;;;15.40;92.30;;;;;;5166904;27;20448;-41
2021/05/02 03:08:11;;;;;;;2.00;1.00;;;15.30;92.50;;;;;;5165781;27;20467;-42
2021/05/02 03:10:44;;;;;;;1.17;1.07;;;15.20;92.40;;;;;;5166704;27;20759;-42
2021/05/02 03:13:14;;;;;;;1.47;1.10;;;15.20;92.50;;;;;;5166121;27;20475;-41
2021/05/02 03:15:45;;;;;;;2.50;1.50;;;15.20;92.20;;;;;;5166222;27;20523;-41
2021/05/02 03:18:21;;;;;;;1.93;1.60;;;15.10;92.60;;;;;;5166438;27;20539;-40
2021/05/02 03:20:57;;;;;;;2.30;1.63;;;15.00;93.20;;;;;;5166667;27;20444;-42
2021/05/02 03:23:33;;;;;;;1.40;1.30;;;15.10;93.20;;;;;;5166072;27;20462;-42
2021/05/02 03:26:06;;;;;;;2.47;2.27;;;15.00;93.10;;;;;;5165658;27;20854;-42
2021/05/02 03:28:41;;;;;;;2.03;1.93;;;15.00;93.20;;;;;;5164883;27;20492;-41
2021/05/02 03:31:13;;;;;;;1.60;1.50;;;14.90;94.40;;;;;;5166254;27;20544;-42
2021/05/02 03:33:48;;;;;;;2.87;2.57;;;14.90;94.50;;;;;;5164442;27;20516;-41
2021/05/02 03:36:25;;;;;;;4.43;3.73;;;14.80;94.80;;;;;;5165802;27;20448;-42
2021/05/02 03:38:55;;;;;;;6.43;4.50;;;14.70;95.30;;;;;;5162991;27;20440;-42
2021/05/02 03:41:27;;;;;;;5.80;5.30;;;14.70;95.60;;;;;;5165030;27;20505;-41
2021/05/02 03:43:57;;;;;;;6.03;5.40;;;14.70;95.50;;;;;;5165183;27;20981;-42
2021/05/02 03:46:28;;;;;;;3.93;3.60;;;14.70;96.00;;;;;;5165067;27;20476;-40
2021/05/02 03:48:59;;;;;;;4.40;3.17;;;14.60;96.10;;;;;;5165725;27;20473;-39
2021/05/02 03:51:32;;;;;;;3.17;2.03;;;14.60;96.60;;;;;;5163741;27;20792;-41
2021/05/02 03:54:02;;;;;;;2.40;2.00;;;14.50;96.90;;;;;;5164907;27;20472;-41
2021/05/02 03:56:35;;;;;;;2.07;1.57;;;14.50;97.10;;;;;;5163313;27;20451;-41
2021/05/02 03:59:13;;;;;;;4.03;1.53;;;14.40;96.40;;;;;;5165196;27;20440;-40
2021/05/02 04:01:51;;;;;;;2.70;2.27;;;14.40;96.70;;;;;;5164769;27;20436;-41
2021/05/02 04:04:22;;;;;;;2.70;1.60;;;14.20;97.30;;;;;;5162753;27;20440;-42
2021/05/02 04:06:52;;;;;;;1.70;1.60;;;14.10;97.70;;;;;;5164885;27;20455;-41
2021/05/02 04:09:22;;;;;;;2.03;1.80;;;14.00;97.80;;;;;;5164981;27;20444;-41
2021/05/02 04:11:54;;;;;;;1.73;1.63;;;14.00;97.60;;;;;;5164446;27;20448;-41
2021/05/02 04:14:24;;;;;;;2.20;1.60;;;13.90;98.10;;;;;;5161337;27;20528;-41
2021/05/02 04:16:58;;;;;;;3.60;1.80;;;14.00;98.50;;;;;;5165176;27;20440;-41
2021/05/02 04:19:29;;;;;;;5.37;1.90;;;13.90;98.00;;;;;;5165030;27;20515;-40
2021/05/02 04:21:59;;;;;;;2.10;1.87;;;13.90;98.50;;;;;;5165039;27;20451;-40
2021/05/02 04:24:30;;;;;;;1.93;1.63;;;13.90;98.50;;;;;;5164637;27;20456;-43
2021/05/02 04:27:02;;;;;;;2.60;1.87;;;13.80;98.70;;;;;;5162934;27;20499;-42
2021/05/02 04:29:34;;;;;;;2.13;1.93;;;13.80;98.70;;;;;;5164392;27;20491;-40
2021/05/02 04:32:05;;;;;;;2.03;1.73;;;13.80;98.90;;;;;;5149369;27;20470;-41
2021/05/02 04:34:35;;;;;;;3.00;1.70;;;13.80;98.90;;;;;;5159389;27;20825;-40
2021/05/02 04:37:05;;;;;;;2.87;2.57;;;13.80;98.50;;;;;;5150051;27;20464;-39
2021/05/02 04:39:36;;;;;;;1.80;1.67;;;13.80;99.00;;;;;;5142311;27;20548;-41
2021/05/02 04:42:08;;;;;;;1.57;1.47;;;13.70;99.60;;;;;;5148526;27;20456;-40
2021/05/02 04:44:38;;;;;;;2.30;1.80;;;13.80;99.30;;;;;;5164274;27;20443;-41
2021/05/02 04:47:09;;;;;;;2.33;1.73;;;13.80;99.90;;;;;;5163862;27;20865;-41
2021/05/02 04:49:39;;;;;;;2.93;2.10;;;13.70;99.60;;;;;;5164655;27;20452;-42
2021/05/02 04:52:09;;;;;;;1.70;1.60;;;13.60;99.90;;;;;;5163113;27;20484;-41
2021/05/02 04:54:39;;;;;;;2.30;1.90;;;13.60;99.90;;;;;;5151622;27;20487;-41
2021/05/02 04:57:10;;;;;;;1.63;1.30;;;13.60;99.70;;;;;;5163084;27;20512;-42
2021/05/02 04:59:44;;;;;;;3.20;2.07;;;13.70;99.00;;;;;;5148682;27;20449;-42
2021/05/02 05:02:14;;;;;;;4.60;2.43;;;13.70;99.90;;;;;;5164402;27;20448;-41
2021/05/02 05:04:46;;;;;;;2.20;1.70;;;13.70;99.90;;;;;;5164362;27;20452;-41
2021/05/02 05:07:16;;;;;;;2.10;1.70;;;13.70;99.80;;;;;;5164027;27;20460;-42
2021/05/02 05:09:46;;;;;;;2.40;1.40;;;13.70;99.90;;;;;;5164217;27;20448;-41
2021/05/02 05:12:17;;;;;;;1.53;1.43;;;13.70;99.70;;;;;;5163197;27;20513;-41
2021/05/02 05:14:47;;;;;;;3.40;1.93;;;13.70;99.90;;;;;;5164832;27;20516;-43
2021/05/02 05:17:17;;;;;;;2.60;2.30;;;13.70;99.80;;;;;;5163752;27;20503;-42
2021/05/02 05:19:47;;;;;;;3.73;2.57;;;13.70;99.80;;;;;;5165719;27;20520;-41
2021/05/02 05:22:17;;;;;;;1.33;1.23;;;13.60;99.90;;;;;;5154092;27;20496;-41
2021/05/02 05:24:47;;;;;;;1.50;1.40;;;13.50;99.90;;;;;;5168320;27;20515;-41
2021/05/02 05:27:18;;;;;;;2.80;2.03;;;13.40;99.90;;;;;;5167173;27;20428;-41
2021/05/02 05:29:48;;;;;;;2.00;1.80;;;13.30;99.90;;;;;;5168444;27;20440;-41
2021/05/02 05:32:18;;;;;;;3.63;1.40;;;13.20;99.90;;;;;;5168008;27;20504;-42
2021/05/02 05:34:48;;;;;;;1.80;1.70;;;13.20;99.90;;;;;;5167600;27;20487;-41
2021/05/02 05:37:19;;;;;;;2.40;1.40;;;13.20;99.90;;;;;;5167564;27;20510;-41
2021/05/02 05:39:49;;;;;;;1.67;1.20;;;13.20;99.90;;;;;;5168257;27;20447;-42
2021/05/02 05:42:20;;;;;;;1.43;1.33;;;13.20;99.90;;;;;;5166785;27;20485;-41
2021/05/02 05:44:50;;;;;;;3.00;1.50;;;13.10;99.90;;;;;;5168640;27;20443;-42
2021/05/02 05:47:21;;;;;;;2.30;1.20;;;13.10;99.90;;;;;;5167541;27;20515;-42
2021/05/02 05:49:51;;;;;;;1.67;1.30;;;13.00;99.90;;;;;;5167922;27;20444;-42
2021/05/02 05:52:22;;;;;;;2.03;1.30;;;13.00;99.90;;;;;;5167931;27;20440;-42
2021/05/02 05:54:52;;;;;;;2.40;1.20;;;13.00;99.90;;;;;;5167565;27;20479;-41
2021/05/02 05:57:23;;;;;;;2.00;1.50;;;13.00;99.90;;;;;;5166979;27;20504;-42
2021/05/02 05:59:53;;;;;;;1.90;1.00;;;12.90;99.90;;;;;;5166455;27;20444;-42
2021/05/02 06:02:23;;;;;;;2.70;1.67;;;12.90;99.90;;;;;;5165743;27;20448;-42
2021/05/02 06:04:53;;;;;;;1.70;1.17;;;12.90;99.90;;;;;;5167489;27;20531;-41
2021/05/02 06:07:23;;;;;;;1.77;1.30;;;12.80;99.90;;;;;;5166583;27;20440;-42
2021/05/02 06:09:53;;;;;;;3.40;1.40;;;12.80;99.90;;;;;;5167200;27;20458;-42
2021/05/02 06:12:25;;;;;;;1.47;1.10;;;12.80;99.90;;;;;;5166567;27;20517;-42
2021/05/02 06:14:55;;;;;;;1.93;1.40;;;12.80;99.90;;;;;;5165235;27;20476;-42
2021/05/02 06:17:25;;;;;;;1.60;1.47;;;12.80;99.90;;;;;;5164785;27;20440;-41
2021/05/02 06:19:55;;;;;;;2.07;1.33;;;12.70;99.90;;;;;;5166792;27;20460;-42
2021/05/02 06:22:25;;;;;;;3.27;1.87;;;12.70;99.90;;;;;;5167253;27;20444;-42
2021/05/02 06:24:55;;;;;;;2.57;1.40;;;12.80;99.90;;;;;;5166988;27;20477;-41
2021/05/02 06:27:26;;;;;;;1.73;1.60;;;12.80;99.90;;;;;;5162146;27;20559;-41
2021/05/02 06:29:57;;;;;;;2.10;1.50;;;12.70;99.90;;;;;;5166026;27;20444;-41
2021/05/02 06:32:27;;;;;;;1.80;1.50;;;12.70;99.90;;;;;;5165265;27;20962;-41
2021/05/02 06:34:58;;;;;;;1.50;1.40;;;12.60;99.90;;;;;;5166982;27;20476;-41
2021/05/02 06:37:28;;;;;;;1.77;1.40;;;12.70;99.90;;;;;;5166875;27;20725;-40
2021/05/02 06:39:58;;;;;;;1.40;1.30;;;12.70;99.90;;;;;;5166838;27;20497;-41
2021/05/02 06:42:29;;;;;;;4.00;1.90;;;12.60;99.90;;;;;;5166520;27;20481;-41
2021/05/02 06:44:59;;;;;;;1.80;1.70;;;12.60;99.90;;;;;;5167129;27;20493;-41
2021/05/02 06:47:30;;;;;;;1.60;1.50;;;12.60;99.90;;;;;;5166419;27;20444;-42
2021/05/02 06:50:00;;;;;;;2.03;1.57;;;12.60;99.90;;;;;;5166850;27;20523;-42
2021/05/02 06:52:30;;;;;;;2.30;1.60;;;12.50;99.90;;;;;;5166533;27;20444;-40
2021/05/02 06:55:00;;;;;;;3.40;1.50;;;12.60;99.90;;;;;;5166461;27;20487;-41
2021/05/02 06:57:32;;;;;;;2.78;1.40;;;12.60;99.90;;;;;;5164276;27;20825;-41
2021/05/02 07:00:03;;;;;;;2.43;1.70;;;12.60;99.90;;;;;;5166870;27;20213;-42
2021/05/02 07:02:33;;;;;;;3.87;1.60;;;12.60;99.90;;;;;;5165717;27;20539;-40
2021/05/02 07:05:03;;;;;;;3.10;1.70;;;12.60;99.90;;;;;;5166331;27;20459;-40
2021/05/02 07:07:33;;;;;;;3.77;1.90;;;12.60;99.90;;;;;;5166441;27;20551;-40
2021/05/02 07:10:05;;;;;;;1.83;1.50;;;12.60;99.90;;;;;;5166512;27;20444;-41
2021/05/02 07:12:36;;;;;;;3.37;1.60;;;12.60;99.90;;;;;;5165182;27;20452;-43
2021/05/02 07:15:08;;;;;;;2.50;1.67;;;12.60;99.90;;;;;;5166221;27;20495;-41
2021/05/02 07:17:38;;;;;;;2.27;1.70;;;12.60;99.90;;;;;;5158896;27;20444;-41
2021/05/02 07:20:10;;;;;;;1.80;1.50;;;12.50;99.90;;;;;;5166539;27;20439;-41
2021/05/02 07:22:42;;;;;;;2.20;1.50;;;12.50;99.90;;;;;;5166309;27;20444;-42
2021/05/02 07:25:13;;;;;;;1.83;1.47;;;12.50;99.90;;;;;;5165647;27;20455;-41
2021/05/02 07:27:44;;;;;;;2.03;1.30;;;12.60;99.90;;;;;;5164577;27;20856;-41
2021/05/02 07:30:15;;;;;;;3.93;1.50;;;12.50;99.90;;;;;;5155616;27;20504;-41
2021/05/02 07:32:45;;;;;;;1.50;1.40;;;12.50;99.90;;;;;;5165773;27;20444;-41
2021/05/02 07:35:15;;;;;;;2.20;1.70;;;12.60;99.90;;;;;;5165745;27;20467;-41
2021/05/02 07:37:45;;;;;;;4.57;1.70;;;12.60;99.90;;;;;;5165266;27;20520;-41
2021/05/02 07:40:16;;;;;;;2.70;1.50;;;12.50;99.90;;;;;;5165861;27;20476;-41
2021/05/02 07:42:47;;;;;;;2.40;1.80;;;12.60;99.90;;;;;;5164029;27;20444;-40
2021/05/02 07:45:18;;;;;;;1.60;1.50;;;12.60;99.90;;;;;;5165382;27;20939;-41
2021/05/02 07:47:48;;;;;;;2.07;1.73;;;12.60;99.90;;;;;;5164559;27;20456;-41
2021/05/02 07:50:18;;;;;;;2.00;1.20;;;12.60;99.90;;;;;;5165568;27;20567;-41
2021/05/02 07:52:49;;;;;;;1.20;1.10;;;12.60;99.90;;;;;;5159701;27;20464;-41
2021/05/02 07:55:19;;;;;;;2.30;1.70;;;12.60;99.90;;;;;;5163282;27;20543;-40
2021/05/02 07:57:50;;;;;;;2.03;1.40;;;12.50;99.90;;;;;;5163852;27;20497;-41
2021/05/02 08:00:21;;;;;;;2.20;1.43;;;12.50;99.90;;;;;;5165514;27;20451;-42
2021/05/02 08:02:51;;;;;;;1.90;1.23;;;12.60;99.90;;;;;;5164767;27;20444;-42
2021/05/02 08:05:22;;;;;;;1.53;1.20;;;12.50;99.90;;;;;;5164948;27;20444;-41
2021/05/02 08:07:52;;;;;;;1.93;1.40;;;12.50;99.90;;;;;;5164765;27;20482;-41
2021/05/02 08:10:22;;;;;;;2.40;1.17;;;12.60;99.90;;;;;;5164888;27;20452;-40
2021/05/02 08:12:55;;;;;;;2.80;1.42;;;12.50;99.90;;;;;;5164229;27;20947;-41
2021/05/02 08:15:27;;;;;;;1.67;1.50;;;12.50;99.90;;;;;;5164648;27;20294;-41
2021/05/02 08:17:57;;;;;;;2.03;1.47;;;12.40;99.90;;;;;;5164782;27;20451;-42
2021/05/02 08:20:28;;;;;;;2.83;1.50;;;12.40;99.90;;;;;;5157569;27;20480;-41
2021/05/02 08:22:58;;;;;;;2.67;1.27;;;12.40;99.90;;;;;;5164163;27;20452;-41
2021/05/02 08:25:28;;;;;;;3.10;1.90;;;12.40;99.90;;;;;;5164533;27;20481;-42
2021/05/02 08:27:59;;;;;;;2.10;1.90;;;12.40;99.90;;;;;;5163203;27;20448;-41
2021/05/02 08:30:29;;;;;;;2.50;2.07;;;12.50;99.90;;;;;;5165210;27;20459;-39
2021/05/02 08:32:59;;;;;;;2.63;2.00;;;12.40;99.90;;;;;;5164429;27;20477;-41
2021/05/02 08:35:29;;;;;;;1.60;1.50;;;12.40;99.90;;;;;;5165095;27;20444;-41
2021/05/02 08:38:00;;;;;;;2.63;1.37;;;12.40;99.90;;;;;;5164348;27;20492;-41
2021/05/02 08:40:30;;;;;;;2.58;1.40;;;12.40;99.90;;;;;;5163856;27;20477;-39
2021/05/02 08:43:08;;;;;;;3.85;1.80;;;12.40;99.90;;;;;;5163865;27;20198;-41
2021/05/02 08:45:39;;;;;;;2.20;1.50;;;12.40;99.90;;;;;;5162616;27;20226;-41
2021/05/02 08:50:58;;;;;;;2.20;1.50;;;12.40;99.90;;;;;;5165043;27;20436;-40
2021/05/02 08:53:29;;;;;;;1.53;1.43;;;12.30;99.90;;;;;;5164062;27;20471;-41
2021/05/02 08:56:01;;;;;;;3.57;1.40;;;12.30;99.90;;;;;;5163024;27;20935;-41
2021/05/02 08:58:33;;;;;;;1.67;1.57;;;12.30;99.90;;;;;;5162756;27;20492;-41
2021/05/02 09:01:04;;;;;;;2.20;1.53;;;12.30;99.90;;;;;;5164094;27;20821;-41
2021/05/02 09:03:42;;;;;;;1.53;1.43;;;12.30;99.90;;;;;;5163958;27;20448;-41
2021/05/02 09:06:19;;;;;;;3.20;2.10;;;12.30;99.90;;;;;;5164146;27;20460;-41
2021/05/02 09:08:53;;;;;;;2.03;1.70;;;12.30;99.90;;;;;;5163696;27;20454;-42
2021/05/02 09:11:32;;;;;;;3.75;1.90;;;12.30;99.90;;;;;;5163548;27;20501;-41
2021/05/02 09:14:05;;;;;;;1.70;1.60;;;12.30;99.90;;;;;;5164234;27;20433;-41
2021/05/02 09:16:48;;;;;;;3.10;2.13;;;12.30;99.90;;;;;;5163062;27;20440;-41
2021/05/02 09:19:19;;;;;;;2.97;2.15;;;12.40;99.90;;;;;;5163766;27;20447;-41
2021/05/02 09:21:50;;;;;;;2.45;1.75;;;12.30;99.90;;;;;;5163368;27;20186;-41
2021/05/02 09:24:27;;;;;;;2.50;1.53;;;12.30;99.90;;;;;;5164900;27;20183;-41
2021/05/02 09:27:05;;;;;;;1.73;1.63;;;12.30;99.90;;;;;;5160249;27;20563;-41
2021/05/02 09:29:37;;;;;;;2.77;1.90;;;12.30;99.90;;;;;;5160502;27;20481;-40
2021/05/02 09:32:08;;;;;;;2.23;1.60;;;12.40;99.90;;;;;;5163428;27;20972;-41
2021/05/02 09:34:38;;;;;;;4.07;1.90;;;12.40;99.90;;;;;;5164313;27;20491;-41
2021/05/02 09:37:09;;;;;;;1.77;1.60;;;12.40;99.90;;;;;;5160710;27;20447;-40
2021/05/02 09:39:42;;;;;;;2.30;2.10;;;12.30;99.90;;;;;;5164202;27;20448;-40
2021/05/02 09:42:16;;;;;;;1.73;1.63;;;12.20;99.90;;;;;;5163210;27;20439;-41
2021/05/02 09:44:51;;;;;;;4.17;1.90;;;12.20;99.90;;;;;;5164049;27;20454;-40
2021/05/02 09:47:24;;;;;;;2.67;1.73;;;12.10;99.90;;;;;;5163438;27;20475;-41
2021/05/02 09:50:16;;;;;;;2.63;2.13;;;12.10;99.90;;;;;;5163496;27;20446;-40
2021/05/02 09:52:55;;;;;;;2.83;1.80;;;12.10;99.90;;;;;;5164120;27;20504;-41
2021/05/02 09:55:27;;;;;;;2.87;2.07;;;12.10;99.90;;;;;;5163557;27;20535;-40
2021/05/02 09:58:00;;;;;;;4.47;1.80;;;12.20;99.90;;;;;;5162677;27;20540;-41
2021/05/02 10:00:37;;;;;;;3.00;1.90;;;12.10;99.90;;;;;;5151133;27;20454;-41
2021/05/02 10:03:12;;;;;;;3.35;1.77;;;12.20;99.90;;;;;;5163180;27;20492;-41
2021/05/02 10:05:57;;;;;;;2.20;1.50;;;12.20;99.90;;;;;;5164202;27;20198;-41
2021/05/02 10:08:28;;;;;;;2.30;1.50;;;12.30;99.90;;;;;;5163981;27;20813;-41
2021/05/02 10:10:59;;;;;;;3.07;1.60;;;12.20;99.90;;;;;;5167186;27;20195;-41
2021/05/02 10:13:34;;;;;;;2.38;1.55;;;12.10;99.90;;;;;;5166556;27;20472;-39
2021/05/02 10:16:06;;;;;;;3.72;1.30;;;12.10;99.90;;;;;;5167402;27;20202;-41
2021/05/02 10:18:38;;;;;;;2.07;1.87;;;12.10;99.90;;;;;;5167217;27;20213;-40
2021/05/02 10:21:09;;;;;;;2.88;1.30;;;12.10;99.90;;;;;;5167144;27;20440;-40
2021/05/02 10:23:39;;;;;;;1.23;1.13;;;12.10;99.90;;;;;;5166971;27;20198;-41
2021/05/02 10:26:09;;;;;;;2.30;1.73;;;12.10;99.90;;;;;;5164064;27;20451;-41
2021/05/02 10:28:40;;;;;;;1.40;1.30;;;12.10;99.90;;;;;;5163050;27;20447;-42
2021/05/02 10:31:11;;;;;;;1.57;1.27;;;12.00;99.90;;;;;;5166231;27;20279;-42
2021/05/02 10:33:42;;;;;;;2.80;1.60;;;12.00;99.90;;;;;;5167009;27;20471;-41
2021/05/02 10:36:13;;;;;;;4.80;1.77;;;12.00;99.90;;;;;;5166145;27;20444;-40
2021/05/02 10:38:49;;;;;;;3.03;1.60;;;11.90;99.90;;;;;;5150482;27;20444;-40
2021/05/02 10:41:30;;;;;;;4.83;1.50;;;12.00;99.90;;;;;;5165908;27;20452;-41
2021/05/02 10:44:20;;;;;;;3.05;1.20;;;11.90;99.90;;;;;;5166827;27;20500;-40
2021/05/02 10:46:53;;;;;;;1.33;1.15;;;11.90;99.90;;;;;;5166534;27;20283;-40
2021/05/02 10:49:57;;;;;;;1.00;0.97;;;11.80;99.90;;;;;;5161370;27;20243;-41
2021/05/02 10:52:32;;;;;;;1.27;1.17;;;11.80;99.90;;;;;;5164242;27;20473;-41
2021/05/02 10:55:14;;;;;;;1.53;1.43;;;11.70;99.90;;;;;;5165847;27;20566;-40
2021/05/02 10:57:44;;;;;;;2.30;1.10;;;11.70;99.90;;;;;;5162061;27;20460;-40
2021/05/02 11:00:16;;;;;;;3.47;1.50;;;11.70;99.90;;;;;;5166424;27;20643;-40
2021/05/02 11:02:48;;;;;;;1.87;1.40;;;11.70;99.90;;;;;;5154312;27;20805;-40
2021/05/02 11:05:19;;;;;;;1.48;1.38;;;11.70;99.90;;;;;;5167054;27;20440;-41
2021/05/02 11:07:56;;;;;;;1.50;1.27;;;11.70;99.90;;;;;;5166476;27;20220;-41
2021/05/02 11:10:26;;;;;;;2.60;2.40;;;11.60;99.90;;;;;;5166312;27;20194;-41
2021/05/02 11:12:56;;;;;;;1.70;1.30;;;11.60;99.90;;;;;;5165727;27;20452;-41
2021/05/02 11:15:39;;;;;;;1.45;1.35;;;11.50;99.90;;;;;;5165937;27;20523;-42
2021/05/02 11:18:26;;;;;;;2.85;1.60;;;11.50;99.90;;;;;;5164769;27;20205;-42
2021/05/02 11:20:57;;;;;;;2.85;2.13;;;11.50;99.90;;;;;;5164346;27;20206;-42
2021/05/02 11:23:58;;;;;;;2.13;1.48;;;11.50;99.90;;;;;;5156107;27;20187;-40
2021/05/02 11:26:52;;;;;;;2.90;1.55;;;11.40;99.90;;;;;;5162261;27;20274;-41
2021/05/02 11:29:23;;;;;;;3.60;1.63;;;11.40;99.90;;;;;;5166388;27;20251;-42
2021/05/02 11:31:53;;;;;;;2.47;1.67;;;11.40;99.90;;;;;;5165362;27;20213;-42
2021/05/02 11:34:24;;;;;;;2.50;1.45;;;11.30;99.90;;;;;;5165886;27;20268;-43
2021/05/02 11:36:54;;;;;;;2.85;1.65;;;11.30;99.90;;;;;;5164227;27;20195;-42
2021/05/02 11:39:42;;;;;;;2.85;1.60;;;11.30;99.90;;;;;;5166400;27;20243;-42
2021/05/02 11:42:12;;;;;;;2.03;1.90;;;11.30;99.90;;;;;;5164981;27;20206;-42
2021/05/02 11:44:42;;;;;;;2.00;1.80;;;11.20;99.90;;;;;;5166077;27;20198;-40
2021/05/02 11:47:14;;;;;;;3.17;1.67;;;11.10;99.90;;;;;;5165296;27;20222;-41
2021/05/02 11:49:46;;;;;;;3.20;1.98;;;11.00;99.90;;;;;;5162957;27;20541;-41
2021/05/02 11:52:16;;;;;;;1.77;1.63;;;11.00;99.90;;;;;;5165322;27;20198;-42
2021/05/02 11:54:49;;;;;;;3.75;1.60;;;10.90;99.90;;;;;;5165522;27;20222;-40
2021/05/02 11:57:20;;;;;;;5.80;1.80;;;10.90;99.90;;;;;;5160678;27;20191;-41
2021/05/02 11:59:51;;;;;;;1.63;1.48;;;11.00;99.90;;;;;;5166241;27;20206;-41
2021/05/02 12:02:21;;;;;;;1.73;1.60;;;10.90;99.90;;;;;;5165114;27;20190;-41
2021/05/02 12:04:52;;;;;;;4.47;2.13;;;10.90;99.90;;;;;;5153112;27;20206;-42
2021/05/02 12:07:23;;;;;;;1.50;1.38;;;10.90;99.90;;;;;;5164767;27;20694;-40
2021/05/02 12:09:53;;;;;;;3.08;1.75;;;10.90;99.90;;;;;;5165471;27;20210;-41
2021/05/02 12:12:23;;;;;;;2.85;1.85;;;10.90;99.90;;;;;;5163975;27;20210;-40
2021/05/02 12:15:00;;;;;;;3.17;2.15;;;10.80;99.90;;;;;;5150029;27;20279;-41
2021/05/02 12:17:30;;;;;;;5.40;1.65;;;10.70;99.90;;;;;;5163405;27;20236;-41
2021/05/02 12:20:01;;;;;;;3.78;1.65;;;10.70;99.90;;;;;;5165273;27;20195;-40
2021/05/02 12:22:45;;;;;;;2.42;1.60;;;10.70;99.90;;;;;;5164507;27;20656;-40
2021/05/02 12:25:15;;;;;;;1.70;1.50;;;10.70;99.90;;;;;;5165082;27;20198;-40
2021/05/02 12:27:58;;;;;;;5.20;2.00;;;10.70;99.90;;;;;;5163076;27;20198;-40
2021/05/02 12:30:29;;;;;;;3.22;1.70;;;10.80;99.90;;;;;;5165026;27;20320;-43
2021/05/02 12:33:01;;;;;;;3.20;1.70;;;10.80;99.90;;;;;;5165167;27;20289;-40
2021/05/02 12:35:32;;;;;;;4.22;1.60;;;10.80;99.90;;;;;;5164750;27;20227;-40
2021/05/02 12:38:02;;;;;;;1.98;1.50;;;10.80;99.90;;;;;;5165051;27;20255;-42
2021/05/02 12:40:32;;;;;;;2.30;1.80;;;10.80;99.90;;;;;;5164724;27;20210;-40
2021/05/02 12:43:02;;;;;;;1.98;1.30;;;10.80;99.90;;;;;;5164171;27;20315;-40
2021/05/02 12:51:31;;;;;;;3.88;1.65;;;10.80;99.90;;;;;;5164189;27;20194;-39
2021/05/02 12:54:08;;;;;;;3.50;1.95;;;10.90;99.90;;;;;;5162714;27;20258;-40
2021/05/02 12:56:39;;;;;;;1.70;1.60;;;10.90;99.90;;;;;;5163087;27;20198;-40
2021/05/02 12:59:33;;;;;;;2.63;2.08;;;10.90;99.90;;;;;;5164340;27;20194;-42
2021/05/02 13:02:12;;;;;;;2.50;1.48;;;10.80;99.90;;;;;;5163360;27;20669;-39
2021/05/02 13:05:01;;;;;;;2.78;2.13;;;10.80;99.90;;;;;;5165092;27;20198;-40
2021/05/02 13:07:37;;;;;;;2.70;2.10;;;10.80;99.90;;;;;;5159230;27;20209;-42
2021/05/02 13:10:10;;;;;;;2.58;2.00;;;10.80;99.90;;;;;;5165220;27;20614;-39
2021/05/02 13:12:59;;;;;;;2.20;2.10;;;10.90;99.90;;;;;;5162883;27;20220;-41
2021/05/02 13:15:33;;;;;;;3.50;2.35;;;10.90;99.90;;;;;;5164610;27;20283;-40
2021/05/02 13:18:07;;;;;;;4.05;1.88;;;10.90;99.90;;;;;;5164627;27;20228;-41
2021/05/02 13:20:48;;;;;;;2.28;2.08;;;10.90;99.90;;;;;;5163560;27;20206;-41
2021/05/02 13:23:35;;;;;;;3.30;2.28;;;10.80;99.90;;;;;;5161803;27;20194;-38